Time;durP1;ratioP1;P1;durP2;ratioP2;P2;SDS_P1;SDS_P2;PMS_P1;PMS_P2;Temp;Humidity;BMP_temperature;BMP_pressure;BME280_temperature;BME280_humidity;BME280_pressure;Samples;Min_cycle;Max_cycle;Signal;HPM_P1;HPM_P2
2022/06/25 00:01:37;;;;;;;12.77;3.22;;;;;;;;;;6142420;23;20020;-57
2022/06/25 00:04:04;;;;;;;10.65;3.45;;;;;;;;;;6134936;23;20074;-58
2022/06/25 00:06:29;;;;;;;10.00;2.50;;;;;;;;;;6117993;23;20029;-57
2022/06/25 00:08:56;;;;;;;8.10;2.50;;;;;;;;;;6144494;23;20017;-57
2022/06/25 00:14:07;;;;;;;11.13;2.13;;;;;;;;;;6138171;23;20503;-57
2022/06/25 00:16:36;;;;;;;8.27;2.70;;;;;;;;;;6145320;23;20020;-57
2022/06/25 00:19:02;;;;;;;9.23;1.80;;;;;;;;;;6135860;23;20021;-57
2022/06/25 00:21:29;;;;;;;10.02;2.45;;;;;;;;;;6149498;23;20018;-58
2022/06/25 00:23:55;;;;;;;14.88;2.45;;;;;;;;;;6137877;23;20017;-57
2022/06/25 00:26:22;;;;;;;13.73;2.38;;;;;;;;;;6142449;23;20013;-57
2022/06/25 00:28:48;;;;;;;9.30;2.05;;;;;;;;;;6133680;23;20017;-57
2022/06/25 00:31:15;;;;;;;11.13;2.05;;;;;;;;;;6145912;23;20018;-56
2022/06/25 00:33:43;;;;;;;8.52;2.15;;;;;;;;;;6141089;23;20017;-57
2022/06/25 00:36:09;;;;;;;6.25;1.60;;;;;;;;;;6146876;23;20017;-57
2022/06/25 00:38:37;;;;;;;7.35;1.80;;;;;;;;;;6144638;23;20030;-58
2022/06/25 00:41:04;;;;;;;11.60;2.67;;;;;;;;;;6140768;23;20072;-56
2022/06/25 00:43:32;;;;;;;13.98;2.65;;;;;;;;;;6144267;23;20043;-55
2022/06/25 00:45:58;;;;;;;2.97;1.67;;;;;;;;;;6142799;23;20018;-57
2022/06/25 00:48:26;;;;;;;6.97;1.52;;;;;;;;;;6143698;23;20037;-57
2022/06/25 00:50:57;;;;;;;10.48;2.75;;;;;;;;;;6148466;23;20115;-57
2022/06/25 00:53:25;;;;;;;10.00;2.10;;;;;;;;;;6111620;23;20024;-57
2022/06/25 00:55:52;;;;;;;5.93;1.50;;;;;;;;;;6145250;23;20265;-56
2022/06/25 00:58:20;;;;;;;6.75;1.60;;;;;;;;;;6138074;23;20032;-56
2022/06/25 01:00:46;;;;;;;9.20;1.58;;;;;;;;;;6146316;23;20022;-55
2022/06/25 01:03:13;;;;;;;11.27;2.63;;;;;;;;;;6136476;23;20459;-58
2022/06/25 01:05:40;;;;;;;13.60;2.22;;;;;;;;;;6144551;23;20530;-57
2022/06/25 01:08:07;;;;;;;4.65;1.45;;;;;;;;;;6137603;23;20041;-55
2022/06/25 01:10:34;;;;;;;6.00;1.67;;;;;;;;;;6146291;23;20022;-57
2022/06/25 01:13:00;;;;;;;5.55;1.30;;;;;;;;;;6117637;23;20017;-57
2022/06/25 01:15:27;;;;;;;7.47;1.83;;;;;;;;;;6140854;23;20452;-56
2022/06/25 01:17:53;;;;;;;10.35;1.80;;;;;;;;;;6137413;23;20045;-56
2022/06/25 01:20:21;;;;;;;6.35;2.38;;;;;;;;;;6125002;23;20013;-57
2022/06/25 01:22:48;;;;;;;6.63;1.65;;;;;;;;;;6147629;23;20089;-56
2022/06/25 01:25:16;;;;;;;4.55;1.73;;;;;;;;;;6139655;23;20017;-57
2022/06/25 01:27:43;;;;;;;6.07;1.77;;;;;;;;;;6143351;23;20013;-56
2022/06/25 01:30:13;;;;;;;5.13;1.67;;;;;;;;;;6135523;23;20364;-57
2022/06/25 01:32:39;;;;;;;6.57;1.67;;;;;;;;;;6144401;23;20015;-58
2022/06/25 01:35:06;;;;;;;4.55;1.58;;;;;;;;;;6137138;23;20025;-55
2022/06/25 01:37:33;;;;;;;4.22;1.50;;;;;;;;;;6144271;23;20014;-55
2022/06/25 01:40:01;;;;;;;6.70;1.98;;;;;;;;;;6129645;23;20024;-58
2022/06/25 01:45:12;;;;;;;5.53;1.48;;;;;;;;;;6133952;23;20021;-57
2022/06/25 01:47:39;;;;;;;13.48;2.50;;;;;;;;;;6113919;23;20075;-57
2022/06/25 01:50:07;;;;;;;4.50;1.73;;;;;;;;;;6120229;23;20505;-55
2022/06/25 01:52:34;;;;;;;8.63;2.42;;;;;;;;;;6145978;23;20733;-57
2022/06/25 01:55:03;;;;;;;5.95;1.80;;;;;;;;;;6146507;23;20024;-56
2022/06/25 01:57:29;;;;;;;14.38;2.40;;;;;;;;;;6111427;23;20017;-57
2022/06/25 01:59:55;;;;;;;7.28;1.98;;;;;;;;;;6118737;23;20021;-56
2022/06/25 02:02:22;;;;;;;5.22;1.95;;;;;;;;;;6148834;23;20013;-57
2022/06/25 02:04:48;;;;;;;12.07;2.33;;;;;;;;;;6143683;23;20018;-57
2022/06/25 02:07:15;;;;;;;5.75;2.10;;;;;;;;;;6146009;23;20095;-57
2022/06/25 02:09:41;;;;;;;12.20;2.55;;;;;;;;;;6147369;23;20475;-58
2022/06/25 02:12:11;;;;;;;11.60;4.40;;;;;;;;;;6141486;23;20014;-57
2022/06/25 02:14:37;;;;;;;9.43;2.42;;;;;;;;;;6145241;23;20072;-56
2022/06/25 02:17:04;;;;;;;8.00;1.52;;;;;;;;;;6110514;23;20052;-57
2022/06/25 02:19:31;;;;;;;9.27;2.00;;;;;;;;;;6150623;23;20021;-57
2022/06/25 02:21:57;;;;;;;14.63;2.20;;;;;;;;;;6113457;23;20044;-57
2022/06/25 02:24:24;;;;;;;7.75;1.90;;;;;;;;;;6147243;23;20069;-57
2022/06/25 02:26:50;;;;;;;10.02;2.08;;;;;;;;;;6136398;23;20014;-57
2022/06/25 02:29:18;;;;;;;11.50;2.72;;;;;;;;;;6122735;23;20028;-55
2022/06/25 02:31:47;;;;;;;14.27;2.45;;;;;;;;;;6141869;23;20025;-58
2022/06/25 02:34:14;;;;;;;9.07;2.45;;;;;;;;;;6136986;23;20051;-56
2022/06/25 02:36:40;;;;;;;6.55;2.03;;;;;;;;;;6140674;23;20021;-57
2022/06/25 02:39:07;;;;;;;15.32;2.75;;;;;;;;;;6146791;23;20068;-56
2022/06/25 02:41:33;;;;;;;8.45;2.00;;;;;;;;;;6140255;23;20023;-56
2022/06/25 02:44:00;;;;;;;8.80;1.88;;;;;;;;;;6151228;23;20014;-57
2022/06/25 02:46:27;;;;;;;13.23;3.70;;;;;;;;;;6141878;23;20017;-55
2022/06/25 02:48:54;;;;;;;9.40;2.25;;;;;;;;;;6146577;23;20014;-56
2022/06/25 02:51:20;;;;;;;7.75;2.00;;;;;;;;;;6123852;23;20017;-55
2022/06/25 02:53:48;;;;;;;7.95;2.60;;;;;;;;;;6124972;23;20053;-56
2022/06/25 02:58:58;;;;;;;9.85;2.80;;;;;;;;;;6140700;23;20025;-54
2022/06/25 03:01:25;;;;;;;8.95;2.45;;;;;;;;;;6146433;23;20362;-57
2022/06/25 03:03:53;;;;;;;7.05;2.13;;;;;;;;;;6146538;23;20024;-57
2022/06/25 03:06:20;;;;;;;12.05;2.08;;;;;;;;;;6146465;23;20032;-56
2022/06/25 03:08:47;;;;;;;11.48;2.05;;;;;;;;;;6144922;23;20018;-57
2022/06/25 03:11:14;;;;;;;11.75;2.30;;;;;;;;;;6144519;23;20021;-58
2022/06/25 03:13:40;;;;;;;5.22;1.73;;;;;;;;;;6138927;23;20021;-57
2022/06/25 03:16:07;;;;;;;9.73;1.80;;;;;;;;;;6144816;23;20013;-56
2022/06/25 03:18:34;;;;;;;5.38;1.92;;;;;;;;;;6144708;23;20045;-54
2022/06/25 03:21:02;;;;;;;6.45;2.40;;;;;;;;;;6144902;23;20021;-56
2022/06/25 03:23:29;;;;;;;7.80;2.92;;;;;;;;;;6149845;23;20051;-57
2022/06/25 03:25:56;;;;;;;12.65;1.92;;;;;;;;;;6143577;23;20412;-54
2022/06/25 03:28:22;;;;;;;8.00;1.63;;;;;;;;;;6146908;23;20385;-56
2022/06/25 03:30:49;;;;;;;5.30;2.22;;;;;;;;;;6146437;23;20025;-56
2022/06/25 03:33:16;;;;;;;12.93;2.05;;;;;;;;;;6141382;23;20081;-56
2022/06/25 03:35:42;;;;;;;8.45;2.10;;;;;;;;;;6151759;23;20562;-57
2022/06/25 03:38:10;;;;;;;7.78;2.55;;;;;;;;;;6145087;23;20017;-57
2022/06/25 03:40:37;;;;;;;7.10;1.98;;;;;;;;;;6144191;23;20019;-57
2022/06/25 03:43:03;;;;;;;8.88;2.10;;;;;;;;;;6147087;23;20027;-57
2022/06/25 03:45:29;;;;;;;11.80;2.20;;;;;;;;;;6140424;23;20018;-57
2022/06/25 03:47:56;;;;;;;15.48;2.25;;;;;;;;;;6148966;23;20013;-56
2022/06/25 03:50:23;;;;;;;9.63;1.98;;;;;;;;;;6143439;23;20017;-57
2022/06/25 03:52:50;;;;;;;10.23;2.47;;;;;;;;;;6149328;23;20041;-56
2022/06/25 03:55:18;;;;;;;14.23;2.15;;;;;;;;;;6147140;23;20017;-55
2022/06/25 03:57:45;;;;;;;10.82;2.92;;;;;;;;;;6144315;23;20017;-56
2022/06/25 04:00:12;;;;;;;8.23;2.30;;;;;;;;;;6147927;23;20017;-58
2022/06/25 04:02:39;;;;;;;10.68;2.30;;;;;;;;;;6144481;23;20029;-56
2022/06/25 04:05:06;;;;;;;8.73;2.22;;;;;;;;;;6147814;23;20017;-56
2022/06/25 04:07:33;;;;;;;11.23;2.80;;;;;;;;;;6144454;23;20017;-56
2022/06/25 04:09:59;;;;;;;13.32;2.17;;;;;;;;;;6145038;23;20049;-57
2022/06/25 04:12:27;;;;;;;13.10;3.35;;;;;;;;;;6145706;23;20378;-58
2022/06/25 04:14:54;;;;;;;8.60;2.38;;;;;;;;;;6142072;23;20046;-58
2022/06/25 04:17:21;;;;;;;10.65;2.58;;;;;;;;;;6144346;23;20013;-56
2022/06/25 04:19:47;;;;;;;16.42;2.40;;;;;;;;;;6146410;23;20042;-58
2022/06/25 04:22:14;;;;;;;8.68;2.55;;;;;;;;;;6117250;23;20036;-57
2022/06/25 04:24:42;;;;;;;4.25;2.33;;;;;;;;;;6149784;23;20021;-57
2022/06/25 04:29:03;;;;;;;15.25;2.55;;;;;;;;;;6146052;23;20594;-58
2022/06/25 04:29:55;;;;;;;11.75;2.45;;;;;;;;;;6145107;23;20021;-56
2022/06/25 04:32:22;;;;;;;13.65;3.22;;;;;;;;;;6142031;23;20013;-57
2022/06/25 04:34:48;;;;;;;13.85;2.50;;;;;;;;;;6148362;23;20014;-57
2022/06/25 04:37:15;;;;;;;11.85;3.17;;;;;;;;;;6144631;23;20013;-57
2022/06/25 04:39:41;;;;;;;15.27;2.65;;;;;;;;;;6116362;23;20077;-58
2022/06/25 04:42:08;;;;;;;15.65;4.03;;;;;;;;;;6150117;23;20044;-57
2022/06/25 04:44:34;;;;;;;14.80;3.15;;;;;;;;;;6137866;23;20017;-58
2022/06/25 04:47:04;;;;;;;15.40;3.38;;;;;;;;;;6149091;23;20513;-56
2022/06/25 04:49:30;;;;;;;15.85;2.13;;;;;;;;;;6149122;23;20013;-57
2022/06/25 04:51:57;;;;;;;15.15;3.35;;;;;;;;;;6141038;23;20057;-54
2022/06/25 04:54:23;;;;;;;13.23;2.80;;;;;;;;;;6141274;23;20013;-57
2022/06/25 04:56:50;;;;;;;17.33;4.35;;;;;;;;;;6123571;23;20051;-58
2022/06/25 04:59:18;;;;;;;7.30;2.13;;;;;;;;;;6141739;23;20127;-58
2022/06/25 05:01:45;;;;;;;11.85;2.78;;;;;;;;;;6147276;23;20037;-57
2022/06/25 05:04:12;;;;;;;12.43;2.83;;;;;;;;;;6142667;23;20021;-58
2022/06/25 05:06:39;;;;;;;8.50;2.30;;;;;;;;;;6148711;23;20072;-56
2022/06/25 05:09:05;;;;;;;18.52;2.88;;;;;;;;;;6141811;23;20018;-57
2022/06/25 05:11:32;;;;;;;13.77;3.45;;;;;;;;;;6145770;23;20024;-58
2022/06/25 05:13:58;;;;;;;18.65;3.00;;;;;;;;;;6142130;23;20122;-56
2022/06/25 05:16:25;;;;;;;14.13;3.08;;;;;;;;;;6144735;23;20047;-56
2022/06/25 05:18:52;;;;;;;10.13;3.17;;;;;;;;;;6136123;23;20013;-56
2022/06/25 05:21:20;;;;;;;8.57;3.20;;;;;;;;;;6145962;23;20364;-57
2022/06/25 05:23:47;;;;;;;10.18;2.42;;;;;;;;;;6146523;23;20018;-55
2022/06/25 05:26:14;;;;;;;8.27;2.65;;;;;;;;;;6146470;23;20013;-57
2022/06/25 05:28:40;;;;;;;13.77;2.55;;;;;;;;;;6116584;23;20416;-57
2022/06/25 05:31:07;;;;;;;16.15;3.50;;;;;;;;;;6119794;23;20056;-56
2022/06/25 05:33:34;;;;;;;15.75;3.63;;;;;;;;;;6145182;23;20037;-58
2022/06/25 05:36:00;;;;;;;14.90;3.33;;;;;;;;;;6137411;23;20013;-58
2022/06/25 05:38:28;;;;;;;24.42;3.55;;;;;;;;;;6146468;23;20076;-53
2022/06/25 05:40:55;;;;;;;16.58;3.15;;;;;;;;;;6142442;23;20014;-58
2022/06/25 05:43:22;;;;;;;13.35;4.07;;;;;;;;;;6149148;23;20033;-57
2022/06/25 05:45:48;;;;;;;13.68;3.53;;;;;;;;;;6142567;23;20289;-58
2022/06/25 05:48:15;;;;;;;18.30;3.28;;;;;;;;;;6147459;23;20013;-56
2022/06/25 05:50:41;;;;;;;16.02;3.50;;;;;;;;;;6139978;23;20041;-58
2022/06/25 05:53:08;;;;;;;19.75;3.70;;;;;;;;;;6147064;23;20041;-57
2022/06/25 05:55:36;;;;;;;20.77;4.32;;;;;;;;;;6140269;23;20028;-57
2022/06/25 05:58:02;;;;;;;17.83;3.92;;;;;;;;;;6148376;23;20014;-57
2022/06/25 06:00:29;;;;;;;15.85;3.75;;;;;;;;;;6144752;23;20021;-57
2022/06/25 06:02:55;;;;;;;13.15;3.40;;;;;;;;;;6137638;23;20049;-57
2022/06/25 06:05:22;;;;;;;10.98;3.17;;;;;;;;;;6146098;23;20017;-55
2022/06/25 06:07:48;;;;;;;12.43;3.63;;;;;;;;;;6117424;23;20444;-58
2022/06/25 06:10:15;;;;;;;14.27;4.22;;;;;;;;;;6120421;23;20304;-58
2022/06/25 06:12:43;;;;;;;13.43;4.90;;;;;;;;;;6144434;23;20024;-58
2022/06/25 06:15:10;;;;;;;15.15;4.18;;;;;;;;;;6145310;23;20378;-57
2022/06/25 06:17:37;;;;;;;21.55;3.78;;;;;;;;;;6144587;23;20053;-56
2022/06/25 06:20:04;;;;;;;13.68;3.22;;;;;;;;;;6144748;23;20013;-58
2022/06/25 06:22:30;;;;;;;11.15;3.10;;;;;;;;;;6141382;23;20013;-56
2022/06/25 06:24:57;;;;;;;16.00;4.75;;;;;;;;;;6145074;23;20021;-56
2022/06/25 06:27:24;;;;;;;15.75;4.20;;;;;;;;;;6144377;23;20025;-55
2022/06/25 06:29:51;;;;;;;15.98;3.55;;;;;;;;;;6143389;23;20014;-57
2022/06/25 06:32:18;;;;;;;20.02;4.75;;;;;;;;;;6144344;23;20021;-58
2022/06/25 06:34:45;;;;;;;13.48;3.90;;;;;;;;;;6145414;23;20088;-58
2022/06/25 06:37:11;;;;;;;16.92;3.50;;;;;;;;;;6145524;23;20044;-56
2022/06/25 06:39:38;;;;;;;23.67;4.57;;;;;;;;;;6129256;23;20010;-56
2022/06/25 06:42:04;;;;;;;11.18;3.40;;;;;;;;;;6147879;23;20017;-55
2022/06/25 06:44:31;;;;;;;14.48;4.40;;;;;;;;;;6138563;23;20013;-56
2022/06/25 06:46:59;;;;;;;15.35;5.10;;;;;;;;;;6149167;23;20013;-57
2022/06/25 06:49:26;;;;;;;15.00;3.35;;;;;;;;;;6140977;23;20013;-57
2022/06/25 06:51:52;;;;;;;11.43;4.60;;;;;;;;;;6147424;23;20045;-57
2022/06/25 06:54:19;;;;;;;10.65;3.38;;;;;;;;;;6138385;23;20795;-56
2022/06/25 06:56:46;;;;;;;13.68;3.90;;;;;;;;;;6148059;23;20018;-57
2022/06/25 06:59:12;;;;;;;12.80;4.25;;;;;;;;;;6139355;23;20045;-57
2022/06/25 07:01:39;;;;;;;12.65;3.13;;;;;;;;;;6144481;23;20014;-56
2022/06/25 07:04:07;;;;;;;13.65;3.72;;;;;;;;;;6145075;23;20013;-59
2022/06/25 07:06:33;;;;;;;16.08;4.03;;;;;;;;;;6142859;23;20014;-58
2022/06/25 07:09:00;;;;;;;24.15;4.93;;;;;;;;;;6143638;23;20014;-57
2022/06/25 07:11:29;;;;;;;17.27;4.75;;;;;;;;;;6144893;23;20033;-57
2022/06/25 07:13:56;;;;;;;11.88;4.22;;;;;;;;;;6114919;23;20049;-57
2022/06/25 07:16:23;;;;;;;16.30;4.63;;;;;;;;;;6141509;23;20025;-56
2022/06/25 07:18:50;;;;;;;19.98;5.22;;;;;;;;;;6141048;23;20017;-57
2022/06/25 07:21:19;;;;;;;15.13;4.45;;;;;;;;;;6145672;23;20018;-58
2022/06/25 07:23:46;;;;;;;14.38;4.25;;;;;;;;;;6146896;23;20423;-56
2022/06/25 07:26:13;;;;;;;14.73;4.68;;;;;;;;;;6145543;23;20021;-57
2022/06/25 07:28:39;;;;;;;18.67;4.15;;;;;;;;;;6143411;23;20024;-57
2022/06/25 07:31:06;;;;;;;22.67;4.88;;;;;;;;;;6143501;23;20068;-56
2022/06/25 07:33:34;;;;;;;13.18;3.70;;;;;;;;;;6143773;23;20017;-57
2022/06/25 07:36:00;;;;;;;11.95;3.65;;;;;;;;;;6143059;23;20033;-57
2022/06/25 07:38:28;;;;;;;9.05;3.17;;;;;;;;;;6149114;23;20018;-57
2022/06/25 07:40:55;;;;;;;13.27;3.38;;;;;;;;;;6138936;23;20422;-56
2022/06/25 07:43:22;;;;;;;12.55;3.80;;;;;;;;;;6146016;23;20041;-56
2022/06/25 07:45:49;;;;;;;15.93;3.47;;;;;;;;;;6135951;23;20017;-58
2022/06/25 07:48:15;;;;;;;9.50;3.03;;;;;;;;;;6145745;23;20081;-57
2022/06/25 07:53:27;;;;;;;14.20;4.07;;;;;;;;;;6148486;23;20319;-55
2022/06/25 07:55:55;;;;;;;17.00;3.90;;;;;;;;;;6140246;23;20018;-57
2022/06/25 07:58:23;;;;;;;14.07;4.10;;;;;;;;;;6145427;23;20019;-57
2022/06/25 08:00:49;;;;;;;15.77;4.53;;;;;;;;;;6143962;23;20476;-57
2022/06/25 08:03:16;;;;;;;14.57;3.60;;;;;;;;;;6147364;23;20014;-58
2022/06/25 08:05:42;;;;;;;10.88;3.40;;;;;;;;;;6146773;23;20113;-56
2022/06/25 08:08:09;;;;;;;12.68;4.13;;;;;;;;;;6145178;23;20021;-57
2022/06/25 08:10:35;;;;;;;10.23;3.25;;;;;;;;;;6145194;23;20449;-56
2022/06/25 08:13:03;;;;;;;13.48;2.92;;;;;;;;;;6119583;23;20022;-56
2022/06/25 08:15:29;;;;;;;13.65;3.83;;;;;;;;;;6146988;23;20017;-55
2022/06/25 08:17:57;;;;;;;17.23;5.28;;;;;;;;;;6143632;23;20084;-58
2022/06/25 08:20:24;;;;;;;14.02;3.50;;;;;;;;;;6149768;23;20041;-56
2022/06/25 08:22:50;;;;;;;10.05;3.20;;;;;;;;;;6141912;23;20013;-57
2022/06/25 08:25:17;;;;;;;10.57;3.33;;;;;;;;;;6141781;23;20013;-57
2022/06/25 08:27:46;;;;;;;9.65;3.35;;;;;;;;;;6144736;23;20028;-57
2022/06/25 08:30:14;;;;;;;13.70;3.35;;;;;;;;;;6148879;23;20604;-58
2022/06/25 08:32:41;;;;;;;11.90;3.45;;;;;;;;;;6144271;23;20098;-57
2022/06/25 08:35:07;;;;;;;15.60;3.28;;;;;;;;;;6147622;23;20045;-57
2022/06/25 08:37:37;;;;;;;16.45;3.53;;;;;;;;;;6133118;23;20014;-58
2022/06/25 08:40:03;;;;;;;13.80;3.97;;;;;;;;;;6138525;23;20018;-57
2022/06/25 08:42:30;;;;;;;10.65;4.07;;;;;;;;;;6106657;23;20018;-57
2022/06/25 08:44:57;;;;;;;10.68;3.58;;;;;;;;;;6146325;23;20097;-55
2022/06/25 08:47:25;;;;;;;13.95;3.67;;;;;;;;;;6139878;23;20535;-57
2022/06/25 08:49:52;;;;;;;8.50;3.33;;;;;;;;;;6148386;23;20293;-58
2022/06/25 08:52:19;;;;;;;12.60;2.63;;;;;;;;;;6139726;23;20029;-58
2022/06/25 08:54:46;;;;;;;12.50;3.72;;;;;;;;;;6136255;23;20014;-58
2022/06/25 08:57:12;;;;;;;13.20;3.92;;;;;;;;;;6146192;23;20497;-59
2022/06/25 08:59:39;;;;;;;12.35;3.30;;;;;;;;;;6147880;23;20024;-59
2022/06/25 09:02:06;;;;;;;10.98;3.10;;;;;;;;;;6144538;23;20017;-58
2022/06/25 09:04:34;;;;;;;11.90;3.38;;;;;;;;;;6141764;23;20036;-58
2022/06/25 09:07:10;;;;;;;10.48;3.88;;;;;;;;;;6147280;23;20021;-58
2022/06/25 09:09:37;;;;;;;11.30;3.03;;;;;;;;;;6120828;23;20017;-58
2022/06/25 09:12:08;;;;;;;15.07;3.35;;;;;;;;;;6146011;23;20030;-59
2022/06/25 09:14:35;;;;;;;6.88;2.85;;;;;;;;;;6138154;23;20013;-59
2022/06/25 09:17:04;;;;;;;8.35;3.42;;;;;;;;;;6142347;23;20013;-58
2022/06/25 09:19:31;;;;;;;9.00;2.90;;;;;;;;;;6142957;23;20076;-58
2022/06/25 09:22:00;;;;;;;12.45;3.08;;;;;;;;;;6108526;23;20375;-58
2022/06/25 09:24:39;;;;;;;10.30;2.95;;;;;;;;;;6127308;23;20097;-57
2022/06/25 09:27:06;;;;;;;14.50;3.75;;;;;;;;;;6139388;23;20520;-58
2022/06/25 09:29:36;;;;;;;16.48;3.33;;;;;;;;;;6131604;23;20287;-58
2022/06/25 09:32:03;;;;;;;18.67;4.45;;;;;;;;;;6144805;23;20128;-57
2022/06/25 09:34:33;;;;;;;12.93;3.38;;;;;;;;;;6132935;23;20213;-58
2022/06/25 09:36:59;;;;;;;;;;;;;;;;;;6143621;23;20018;-58
2022/06/25 09:39:40;;;;;;;12.30;3.53;;;;;;;;;;6135021;23;19921;-58
2022/06/25 09:42:06;;;;;;;13.90;3.20;;;;;;;;;;6141766;23;20071;-58
2022/06/25 09:44:32;;;;;;;13.13;3.90;;;;;;;;;;6128204;23;20013;-58
2022/06/25 09:47:01;;;;;;;15.20;3.55;;;;;;;;;;6139017;23;20157;-58
2022/06/25 09:49:28;;;;;;;8.55;3.05;;;;;;;;;;6143404;23;20018;-57
2022/06/25 09:52:00;;;;;;;16.08;4.10;;;;;;;;;;6134656;23;20034;-57
2022/06/25 09:54:29;;;;;;;18.10;4.15;;;;;;;;;;6133514;23;20021;-55
2022/06/25 09:56:55;;;;;;;17.80;4.18;;;;;;;;;;6142359;23;20017;-58
2022/06/25 09:59:24;;;;;;;8.32;3.17;;;;;;;;;;6135588;23;20041;-58
2022/06/25 10:01:50;;;;;;;9.90;3.75;;;;;;;;;;6139287;23;20052;-57
2022/06/25 10:04:17;;;;;;;14.15;3.40;;;;;;;;;;6132753;23;20017;-58
2022/06/25 10:06:44;;;;;;;12.25;3.28;;;;;;;;;;6108184;23;20018;-57
2022/06/25 10:09:11;;;;;;;7.90;2.55;;;;;;;;;;6136757;23;20044;-57
2022/06/25 10:11:39;;;;;;;11.23;2.38;;;;;;;;;;6138782;23;20077;-57
2022/06/25 10:14:06;;;;;;;14.70;3.28;;;;;;;;;;6126064;23;20017;-58
2022/06/25 10:16:33;;;;;;;10.50;2.40;;;;;;;;;;6139065;23;20018;-57
2022/06/25 10:19:01;;;;;;;11.60;2.53;;;;;;;;;;6134190;23;20022;-58
2022/06/25 10:21:27;;;;;;;10.52;3.25;;;;;;;;;;6107140;23;20028;-56
2022/06/25 10:23:56;;;;;;;23.55;3.40;;;;;;;;;;6133471;23;20021;-57
2022/06/25 10:26:23;;;;;;;9.95;3.03;;;;;;;;;;6124885;23;20028;-58
2022/06/25 10:28:51;;;;;;;12.07;3.30;;;;;;;;;;6140467;23;20040;-57
2022/06/25 10:31:19;;;;;;;7.82;2.83;;;;;;;;;;6130623;23;20598;-58
2022/06/25 10:33:53;;;;;;;10.50;3.13;;;;;;;;;;6141835;23;20096;-58
2022/06/25 10:36:39;;;;;;;7.50;3.28;;;;;;;;;;6138016;23;20634;-57
2022/06/25 10:39:20;;;;;;;11.68;3.28;;;;;;;;;;6139215;23;20471;-58
2022/06/25 10:45:07;;;;;;;7.55;1.98;;;;;;;;;;6139383;23;20018;-57
2022/06/25 10:47:34;;;;;;;;;;;;;;;;;;6118694;23;20048;-57
2022/06/25 10:50:27;;;;;;;7.65;2.65;;;;;;;;;;6141530;23;19956;-58
2022/06/25 10:53:12;;;;;;;10.63;3.15;;;;;;;;;;6134631;23;20069;-58
2022/06/25 10:55:42;;;;;;;10.73;2.65;;;;;;;;;;6105795;23;20074;-57
2022/06/25 10:58:10;;;;;;;7.95;2.22;;;;;;;;;;6140889;23;20434;-58
2022/06/25 11:00:47;;;;;;;8.07;2.30;;;;;;;;;;6146502;23;20021;-57
2022/06/25 11:03:13;;;;;;;7.90;2.08;;;;;;;;;;6139002;23;20025;-57
2022/06/25 11:05:40;;;;;;;5.57;2.20;;;;;;;;;;6143470;23;20189;-57
2022/06/25 11:08:07;;;;;;;5.30;2.15;;;;;;;;;;6137058;23;20025;-54
2022/06/25 11:10:35;;;;;;;8.48;2.28;;;;;;;;;;6142036;23;20625;-56
2022/06/25 11:13:01;;;;;;;7.65;2.28;;;;;;;;;;6137697;23;20145;-58
2022/06/25 11:15:38;;;;;;;9.38;2.83;;;;;;;;;;6146166;23;20017;-56
2022/06/25 11:18:08;;;;;;;7.20;2.30;;;;;;;;;;6124051;23;20017;-58
2022/06/25 11:20:34;;;;;;;;;;;;;;;;;;6136690;23;20017;-58
2022/06/25 11:23:02;;;;;;;8.75;2.63;;;;;;;;;;6131513;23;20152;-58
2022/06/25 11:30:58;;;;;;;8.32;3.00;;;;;;;;;;6132716;23;20033;-58
2022/06/25 11:33:26;;;;;;;7.43;2.40;;;;;;;;;;6141608;23;20624;-57
2022/06/25 11:35:53;;;;;;;14.50;2.92;;;;;;;;;;6119768;23;20049;-58
2022/06/25 11:38:20;;;;;;;6.40;2.40;;;;;;;;;;6134413;23;20334;-57
2022/06/25 11:40:47;;;;;;;10.23;2.38;;;;;;;;;;6116755;23;20028;-56
2022/06/25 11:43:14;;;;;;;17.25;3.10;;;;;;;;;;6128642;23;20013;-57
2022/06/25 11:45:47;;;;;;;11.30;3.47;;;;;;;;;;6136549;23;20071;-58
2022/06/25 11:48:14;;;;;;;10.48;2.72;;;;;;;;;;6137247;23;20603;-58
2022/06/25 11:50:42;;;;;;;9.77;2.85;;;;;;;;;;6133879;23;20021;-57
2022/06/25 11:53:09;;;;;;;10.68;2.30;;;;;;;;;;6113760;23;20025;-57
2022/06/25 11:55:38;;;;;;;8.00;2.33;;;;;;;;;;6127459;23;20068;-58
2022/06/25 11:58:05;;;;;;;9.77;3.58;;;;;;;;;;6136087;23;20017;-57
2022/06/25 12:00:31;;;;;;;12.32;2.50;;;;;;;;;;6133687;23;20018;-57
2022/06/25 12:03:01;;;;;;;9.77;2.50;;;;;;;;;;6131353;23;20485;-57
2022/06/25 12:05:28;;;;;;;;;;;;;;;;;;6101491;23;20083;-57
2022/06/25 12:07:57;;;;;;;14.60;4.07;;;;;;;;;;6128683;23;20231;-57
2022/06/25 12:10:24;;;;;;;12.80;4.10;;;;;;;;;;6132379;23;20024;-57
2022/06/25 12:12:50;;;;;;;11.95;2.47;;;;;;;;;;6120961;23;20033;-57
2022/06/25 12:15:17;;;;;;;13.68;3.03;;;;;;;;;;6138624;23;20048;-58
2022/06/25 12:17:44;;;;;;;9.52;2.28;;;;;;;;;;6122673;23;20022;-57
2022/06/25 12:20:11;;;;;;;13.07;3.05;;;;;;;;;;6138523;23;20045;-58
2022/06/25 12:22:39;;;;;;;13.00;2.72;;;;;;;;;;6128022;23;20216;-57
2022/06/25 12:25:08;;;;;;;9.52;2.33;;;;;;;;;;6112384;23;20467;-58
2022/06/25 12:27:45;;;;;;;13.07;2.87;;;;;;;;;;6131608;23;20017;-58
2022/06/25 12:30:11;;;;;;;10.02;2.13;;;;;;;;;;6137807;23;20247;-58
2022/06/25 12:32:39;;;;;;;8.90;2.40;;;;;;;;;;6136499;23;20101;-58
2022/06/25 12:35:13;;;;;;;14.40;2.30;;;;;;;;;;6100666;23;20084;-58
2022/06/25 12:37:40;;;;;;;9.02;2.30;;;;;;;;;;6104978;23;20068;-57
2022/06/25 12:40:09;;;;;;;12.85;2.88;;;;;;;;;;6139007;23;20407;-58
2022/06/25 12:42:36;;;;;;;12.55;2.90;;;;;;;;;;6135323;23;20044;-57
2022/06/25 12:45:02;;;;;;;10.00;2.90;;;;;;;;;;6144706;23;20024;-58
2022/06/25 12:47:40;;;;;;;8.48;2.90;;;;;;;;;;6139867;23;20029;-58
2022/06/25 12:50:07;;;;;;;10.60;2.83;;;;;;;;;;6135747;23;20368;-57
2022/06/25 12:52:36;;;;;;;10.88;2.53;;;;;;;;;;6137963;23;20013;-58
2022/06/25 12:55:03;;;;;;;;;;;;;;;;;;6142706;23;20037;-58
2022/06/25 12:57:32;;;;;;;11.02;2.75;;;;;;;;;;6133849;23;20509;-58
2022/06/25 13:00:00;;;;;;;6.60;3.00;;;;;;;;;;6136888;23;20436;-57
2022/06/25 13:02:26;;;;;;;12.68;3.38;;;;;;;;;;6137829;23;20018;-57
2022/06/25 13:04:53;;;;;;;10.63;3.55;;;;;;;;;;6128749;23;20017;-58
2022/06/25 13:07:20;;;;;;;14.27;3.15;;;;;;;;;;6139367;23;20013;-57
2022/06/25 13:09:47;;;;;;;7.80;2.67;;;;;;;;;;6134990;23;20028;-56
2022/06/25 13:12:14;;;;;;;9.73;2.90;;;;;;;;;;6139923;23;20033;-57
2022/06/25 13:14:42;;;;;;;11.50;3.47;;;;;;;;;;6140150;23;20024;-57
2022/06/25 13:17:09;;;;;;;12.40;2.75;;;;;;;;;;6142702;23;20017;-57
2022/06/25 13:19:37;;;;;;;13.18;3.63;;;;;;;;;;6134985;23;20013;-58
2022/06/25 13:22:04;;;;;;;5.82;2.40;;;;;;;;;;6114163;23;20021;-57
2022/06/25 13:24:31;;;;;;;10.10;2.42;;;;;;;;;;6137353;23;20794;-57
2022/06/25 13:26:58;;;;;;;9.48;3.15;;;;;;;;;;6139874;23;20018;-58
2022/06/25 13:29:25;;;;;;;9.80;2.60;;;;;;;;;;6138404;23;20018;-57
2022/06/25 13:31:54;;;;;;;9.32;3.05;;;;;;;;;;6114970;23;20343;-58
2022/06/25 13:34:20;;;;;;;14.57;3.15;;;;;;;;;;6135686;23;20033;-58
2022/06/25 13:36:47;;;;;;;10.30;3.65;;;;;;;;;;6141762;23;20017;-55
2022/06/25 13:39:13;;;;;;;17.65;2.90;;;;;;;;;;6112751;23;20070;-58
2022/06/25 13:41:40;;;;;;;8.77;2.30;;;;;;;;;;6143117;23;20073;-58
2022/06/25 13:44:07;;;;;;;11.30;5.15;;;;;;;;;;6107429;23;20017;-58
2022/06/25 13:46:33;;;;;;;9.13;3.00;;;;;;;;;;6105411;23;20017;-58
2022/06/25 13:49:01;;;;;;;8.52;2.78;;;;;;;;;;6137368;23;20342;-57
2022/06/25 13:51:28;;;;;;;8.70;2.97;;;;;;;;;;6132709;23;20017;-56
2022/06/25 13:53:54;;;;;;;10.63;2.75;;;;;;;;;;6139326;23;20041;-57
2022/06/25 13:56:21;;;;;;;8.05;2.17;;;;;;;;;;6132057;23;20017;-56
2022/06/25 13:58:48;;;;;;;10.88;2.90;;;;;;;;;;6139892;23;20025;-56
2022/06/25 14:01:15;;;;;;;15.15;2.72;;;;;;;;;;6142512;23;20017;-58
2022/06/25 14:03:41;;;;;;;8.77;3.10;;;;;;;;;;6122507;23;20404;-57
2022/06/25 14:06:09;;;;;;;8.55;2.72;;;;;;;;;;6140736;23;20073;-58
2022/06/25 14:08:36;;;;;;;11.27;2.67;;;;;;;;;;6133672;23;20020;-57
2022/06/25 14:11:03;;;;;;;9.13;2.28;;;;;;;;;;6120818;23;20025;-58
2022/06/25 14:13:29;;;;;;;6.30;2.08;;;;;;;;;;6137670;23;20045;-57
2022/06/25 14:15:56;;;;;;;9.85;2.53;;;;;;;;;;6142736;23;20041;-57
2022/06/25 14:18:22;;;;;;;2.97;1.70;;;;;;;;;;6137019;23;20013;-57
2022/06/25 14:20:49;;;;;;;6.50;1.92;;;;;;;;;;6139816;23;20013;-57
2022/06/25 14:23:17;;;;;;;8.57;3.03;;;;;;;;;;6135514;23;20049;-58
2022/06/25 14:25:43;;;;;;;9.40;2.40;;;;;;;;;;6105174;23;20021;-57
2022/06/25 14:28:10;;;;;;;8.68;2.08;;;;;;;;;;6147241;23;20041;-57
2022/06/25 14:30:36;;;;;;;7.25;2.38;;;;;;;;;;6140964;23;20020;-57
2022/06/25 14:33:04;;;;;;;6.45;2.13;;;;;;;;;;6138806;23;20053;-57
2022/06/25 14:35:31;;;;;;;7.85;2.35;;;;;;;;;;6148370;23;20014;-57
2022/06/25 14:43:29;;;;;;;6.38;2.33;;;;;;;;;;6148039;23;20029;-57
2022/06/25 14:45:56;;;;;;;11.18;2.78;;;;;;;;;;6136896;23;20021;-57
2022/06/25 14:48:22;;;;;;;8.90;2.58;;;;;;;;;;6113302;23;20025;-58
2022/06/25 14:50:49;;;;;;;5.20;2.10;;;;;;;;;;6137238;23;20017;-60
2022/06/25 14:53:15;;;;;;;3.58;1.85;;;;;;;;;;6143440;23;20104;-58
2022/06/25 14:55:43;;;;;;;11.25;2.88;;;;;;;;;;6143562;23;20013;-58
2022/06/25 14:58:10;;;;;;;7.38;2.33;;;;;;;;;;6139932;23;20068;-58
2022/06/25 15:00:36;;;;;;;14.35;2.25;;;;;;;;;;6147672;23;20077;-58
2022/06/25 15:03:03;;;;;;;8.75;1.80;;;;;;;;;;6136441;23;20075;-58